createdAt,value
2022-11-13T00:02:34.980Z,25.03
2022-11-13T00:05:20.465Z,25.43
2022-11-13T00:08:05.731Z,26.08
2022-11-13T00:10:51.156Z,25.58
2022-11-13T00:13:37.097Z,25.75
2022-11-13T00:16:22.446Z,25.18
2022-11-13T00:19:08.371Z,25.92
2022-11-13T00:21:55.128Z,24.68
2022-11-13T00:24:41.024Z,23.89
2022-11-13T00:27:26.329Z,25.04
2022-11-13T00:30:17.844Z,25.86
2022-11-13T00:33:04.378Z,25.90
2022-11-13T00:35:49.886Z,25.84
2022-11-13T00:38:35.472Z,25.05
2022-11-13T00:41:20.458Z,24.98
2022-11-13T00:44:05.956Z,24.36
2022-11-13T00:46:51.233Z,25.00
2022-11-13T00:49:32.051Z,25.32
2022-11-13T00:52:17.389Z,24.25
2022-11-13T00:55:02.673Z,25.79
2022-11-13T00:57:48.076Z,24.66
2022-11-13T01:00:33.603Z,24.55
2022-11-13T01:03:18.965Z,24.28
2022-11-13T01:06:16.862Z,24.01
2022-11-13T01:09:02.145Z,24.24
2022-11-13T01:11:47.253Z,23.74
2022-11-13T01:14:32.522Z,24.68
2022-11-13T01:17:17.896Z,29.02
2022-11-13T01:20:04.233Z,25.31
2022-11-13T01:22:49.645Z,24.06
2022-11-13T01:25:34.673Z,24.08
2022-11-13T01:28:20.067Z,25.66
2022-11-13T01:31:07.753Z,24.03
2022-11-13T01:33:52.761Z,25.90
2022-11-13T01:36:38.061Z,27.39
2022-11-13T01:39:23.724Z,27.54
2022-11-13T01:42:09.129Z,24.54
2022-11-13T01:44:59.769Z,24.17
2022-11-13T01:47:45.089Z,24.68
2022-11-13T01:50:30.551Z,26.61
2022-11-13T01:53:16.448Z,28.46
2022-11-13T01:56:02.652Z,25.34
2022-11-13T01:58:54.437Z,27.00
2022-11-13T02:01:40.986Z,25.89
2022-11-13T02:04:28.327Z,24.19
2022-11-13T02:07:16.701Z,25.57
2022-11-13T02:10:01.905Z,24.11
2022-11-13T02:12:51.540Z,23.87
2022-11-13T02:15:36.849Z,23.41
2022-11-13T02:18:24.614Z,23.31
2022-11-13T02:21:28.985Z,24.97
2022-11-13T02:24:32.490Z,23.55
2022-11-13T02:27:34.161Z,26.46
2022-11-13T02:30:29.439Z,24.88
2022-11-13T02:33:30.883Z,24.43
2022-11-13T02:36:17.047Z,25.19
2022-11-13T02:39:06.750Z,26.86
2022-11-13T02:41:51.746Z,26.28
2022-11-13T02:44:37.256Z,26.52
2022-11-13T02:47:22.337Z,30.64
2022-11-13T02:50:08.616Z,31.19
2022-11-13T02:52:54.003Z,27.61
2022-11-13T02:55:39.950Z,29.42
2022-11-13T02:58:26.812Z,28.03
2022-11-13T03:01:12.522Z,29.32
2022-11-13T03:03:58.582Z,29.33
2022-11-13T03:06:44.592Z,27.33
2022-11-13T03:09:30.157Z,28.46
2022-11-13T03:12:15.306Z,29.35
2022-11-13T03:15:00.906Z,26.66
2022-11-13T03:17:46.013Z,26.26
2022-11-13T03:20:31.733Z,27.35
2022-11-13T03:23:16.649Z,27.41
2022-11-13T03:26:07.964Z,27.77
2022-11-13T03:28:53.075Z,26.03
2022-11-13T03:31:38.385Z,29.36
2022-11-13T03:34:23.845Z,26.94
2022-11-13T03:37:09.106Z,25.51
2022-11-13T03:39:54.495Z,26.32
2022-11-13T03:42:40.413Z,26.37
2022-11-13T03:45:26.425Z,27.96
2022-11-13T03:48:13.980Z,26.58
2022-11-13T03:50:59.763Z,26.02
2022-11-13T03:53:45.030Z,25.73
2022-11-13T03:56:30.449Z,27.70
2022-11-13T03:59:15.652Z,28.02
2022-11-13T04:02:01.036Z,29.18
2022-11-13T04:04:46.284Z,27.80
2022-11-13T04:07:31.644Z,27.28
2022-11-13T04:10:17.551Z,26.88
2022-11-13T04:13:02.889Z,27.60
2022-11-13T04:15:48.175Z,28.84
2022-11-13T04:18:33.637Z,30.27
2022-11-13T04:21:18.936Z,27.23
2022-11-13T04:24:04.635Z,28.70
2022-11-13T04:26:49.611Z,30.89
2022-11-13T04:29:34.875Z,29.56
2022-11-13T04:32:20.177Z,28.78
2022-11-13T04:35:07.261Z,30.00
2022-11-13T04:37:52.823Z,27.36
2022-11-13T04:40:38.357Z,26.36
2022-11-13T04:43:23.366Z,26.58
2022-11-13T04:46:08.905Z,27.14
2022-11-13T04:48:54.064Z,27.05
2022-11-13T04:51:39.409Z,26.60
2022-11-13T04:54:28.690Z,28.89
2022-11-13T04:57:15.124Z,28.13
2022-11-13T05:00:00.730Z,28.29
2022-11-13T05:02:46.053Z,27.47
2022-11-13T05:05:31.413Z,27.64
2022-11-13T05:08:16.709Z,30.05
2022-11-13T05:11:04.033Z,31.20
2022-11-13T05:13:49.350Z,27.94
2022-11-13T05:16:37.757Z,29.76
2022-11-13T05:19:23.102Z,29.50
2022-11-13T05:22:09.288Z,28.81
2022-11-13T05:24:54.228Z,27.14
2022-11-13T05:27:39.528Z,30.06
2022-11-13T05:30:25.304Z,26.96
2022-11-13T05:33:10.367Z,26.65
2022-11-13T05:35:56.476Z,27.17
2022-11-13T05:38:42.522Z,26.26
2022-11-13T05:41:28.453Z,26.47
2022-11-13T05:44:13.732Z,25.44
2022-11-13T05:46:59.532Z,25.57
2022-11-13T05:49:45.140Z,25.97
2022-11-13T05:52:30.621Z,25.59
2022-11-13T05:55:15.927Z,31.00
2022-11-13T05:58:01.271Z,29.82
2022-11-13T06:00:46.705Z,27.88
2022-11-13T06:03:32.348Z,29.78
2022-11-13T06:06:19.657Z,30.26
2022-11-13T06:09:05.860Z,33.41
2022-11-13T06:11:51.045Z,27.29
2022-11-13T06:14:36.339Z,28.36
2022-11-13T06:17:21.656Z,27.42
2022-11-13T06:20:07.285Z,28.53
2022-11-13T06:22:52.712Z,32.43
2022-11-13T06:25:38.024Z,31.02
2022-11-13T06:28:23.185Z,30.25
2022-11-13T06:31:21.505Z,31.12
2022-11-13T06:34:06.585Z,28.56
2022-11-13T06:36:52.005Z,26.85
2022-11-13T06:39:37.313Z,25.44
2022-11-13T06:42:22.630Z,25.25
2022-11-13T06:45:08.669Z,27.74
2022-11-13T06:47:54.139Z,32.01
2022-11-13T06:50:40.924Z,30.39
2022-11-13T06:53:30.075Z,27.73
2022-11-13T06:56:16.218Z,27.11
2022-11-13T06:59:03.122Z,27.56
2022-11-13T07:01:53.433Z,26.89
2022-11-13T07:04:38.628Z,25.79
2022-11-13T07:07:23.885Z,25.03
2022-11-13T07:10:09.493Z,27.58
2022-11-13T07:12:55.016Z,28.88
2022-11-13T07:15:40.261Z,32.52
2022-11-13T07:18:25.695Z,28.49
2022-11-13T07:21:12.630Z,30.05
2022-11-13T07:23:59.070Z,30.99
2022-11-13T07:26:44.149Z,30.53
2022-11-13T07:29:30.346Z,28.95
2022-11-13T07:32:15.830Z,27.83
2022-11-13T07:35:01.472Z,28.56
2022-11-13T07:37:46.659Z,30.58
2022-11-13T07:40:31.821Z,28.41
2022-11-13T07:43:17.323Z,28.43
2022-11-13T07:46:02.798Z,24.95
2022-11-13T07:48:47.909Z,28.91
2022-11-13T07:51:33.214Z,28.55
2022-11-13T07:54:18.750Z,30.84
2022-11-13T07:57:04.131Z,27.18
2022-11-13T07:59:49.481Z,28.78
2022-11-13T08:02:34.836Z,28.75
2022-11-13T08:05:20.864Z,27.74
2022-11-13T08:08:06.729Z,29.44
2022-11-13T08:10:51.837Z,26.35
2022-11-13T08:13:38.087Z,24.18
2022-11-13T08:16:23.580Z,28.32
2022-11-13T08:19:08.675Z,29.68
2022-11-13T08:21:54.075Z,30.32
2022-11-13T08:24:39.335Z,26.29
2022-11-13T08:27:24.975Z,27.07
2022-11-13T08:30:10.593Z,27.71
2022-11-13T08:32:55.767Z,24.91
2022-11-13T08:35:41.309Z,25.76
2022-11-13T08:38:27.305Z,25.75
2022-11-13T08:41:14.908Z,27.42
2022-11-13T08:44:00.209Z,26.23
2022-11-13T08:46:46.060Z,27.93
2022-11-13T08:49:32.157Z,26.47
2022-11-13T08:52:17.469Z,25.61
2022-11-13T08:55:02.949Z,26.96
2022-11-13T08:57:48.186Z,27.63
2022-11-13T09:00:33.603Z,27.96
2022-11-13T09:03:18.785Z,28.86
2022-11-13T09:06:08.392Z,26.13
2022-11-13T09:08:53.381Z,26.17
2022-11-13T09:11:38.815Z,30.20
2022-11-13T09:14:25.131Z,29.75
2022-11-13T09:17:10.580Z,26.76
2022-11-13T09:19:59.513Z,29.55
2022-11-13T09:22:47.794Z,26.74
2022-11-13T09:25:37.929Z,30.48
2022-11-13T09:28:23.736Z,28.18
2022-11-13T09:31:09.197Z,27.67
2022-11-13T09:33:54.487Z,31.58
2022-11-13T09:36:39.823Z,28.26
2022-11-13T09:39:25.413Z,27.71
2022-11-13T09:42:24.666Z,27.24
2022-11-13T09:45:15.837Z,26.73
2022-11-13T09:48:24.301Z,29.32
2022-11-13T09:51:32.642Z,27.29
2022-11-13T09:54:18.644Z,27.40
2022-11-13T09:57:03.817Z,24.46
2022-11-13T09:59:52.705Z,23.98
2022-11-13T10:02:56.621Z,24.45
2022-11-13T10:05:51.384Z,28.67
2022-11-13T10:08:53.353Z,23.80
2022-11-13T10:11:38.720Z,23.21
2022-11-13T10:14:34.503Z,21.04
2022-11-13T10:17:29.392Z,22.74
2022-11-13T10:20:22.768Z,22.18
2022-11-13T10:23:21.965Z,26.01
2022-11-13T10:26:19.493Z,25.97
2022-11-13T10:29:14.745Z,25.90
2022-11-13T10:32:16.242Z,24.02
2022-11-13T10:35:33.196Z,26.32
2022-11-13T10:38:24.636Z,26.75
2022-11-13T10:41:12.828Z,24.35
2022-11-13T10:44:03.134Z,23.87
2022-11-13T10:46:48.811Z,26.63
2022-11-13T10:49:33.760Z,24.34
2022-11-13T10:52:29.815Z,26.98
2022-11-13T10:55:37.049Z,26.38
2022-11-13T10:58:22.201Z,27.29
2022-11-13T11:01:16.356Z,25.08
2022-11-13T11:04:06.518Z,24.02
2022-11-13T11:09:57.564Z,23.58
2022-11-13T11:12:43.035Z,23.68
2022-11-13T11:15:45.238Z,28.81
2022-11-13T11:18:54.038Z,26.53
2022-11-13T11:21:41.885Z,27.72
2022-11-13T11:24:36.788Z,26.34
2022-11-13T11:27:27.890Z,25.22
2022-11-13T11:30:26.588Z,26.13
2022-11-13T11:33:20.056Z,26.30
2022-11-13T11:36:30.781Z,27.00
2022-11-13T11:39:19.488Z,28.39
2022-11-13T11:42:38.614Z,29.09
2022-11-13T11:45:31.529Z,27.39
2022-11-13T11:48:20.671Z,27.87
2022-11-13T11:51:15.416Z,26.12
2022-11-13T11:54:04.087Z,25.30
2022-11-13T11:56:53.729Z,31.70
2022-11-13T11:59:58.097Z,29.20
2022-11-13T12:03:07.871Z,29.62
2022-11-13T12:06:30.833Z,24.89
2022-11-13T12:09:24.566Z,23.89
2022-11-13T12:12:25.036Z,25.83
2022-11-13T12:15:37.349Z,24.10
2022-11-13T12:18:55.057Z,24.27
2022-11-13T12:21:46.935Z,22.96
2022-11-13T12:24:50.545Z,21.67
2022-11-13T12:27:47.253Z,23.90
2022-11-13T12:30:57.676Z,23.27
2022-11-13T12:33:45.621Z,26.22
2022-11-13T12:36:32.182Z,23.94
2022-11-13T12:39:26.468Z,23.37
2022-11-13T12:42:27.960Z,26.66
2022-11-13T12:45:22.075Z,24.62
2022-11-13T12:48:26.083Z,24.95
2022-11-13T12:51:17.320Z,26.55
2022-11-13T12:54:03.437Z,25.04
2022-11-13T12:56:49.315Z,23.54
2022-11-13T12:59:38.356Z,23.53
2022-11-13T13:02:29.720Z,23.80
2022-11-13T13:05:38.094Z,26.80
2022-11-13T13:08:55.137Z,23.51
2022-11-13T13:12:15.030Z,24.70
2022-11-13T13:15:22.970Z,25.29
2022-11-13T13:18:12.987Z,20.78
2022-11-13T13:21:09.027Z,23.06
2022-11-13T13:23:54.281Z,21.47
2022-11-13T13:26:47.686Z,23.08
2022-11-13T13:29:34.204Z,22.63
2022-11-13T13:32:43.498Z,24.58
2022-11-13T13:35:47.591Z,23.51
2022-11-13T13:38:51.874Z,23.26
2022-11-13T13:42:11.368Z,25.42
2022-11-13T13:45:25.540Z,25.28
2022-11-13T13:48:13.829Z,22.17
2022-11-13T13:51:01.303Z,22.75
2022-11-13T13:53:48.915Z,23.75
2022-11-13T13:56:40.701Z,26.09
2022-11-13T13:59:29.419Z,25.87
2022-11-13T14:02:20.653Z,26.58
2022-11-13T14:05:28.002Z,25.61
2022-11-13T14:08:25.072Z,23.63
2022-11-13T14:11:27.194Z,29.13
2022-11-13T14:14:22.989Z,30.87
2022-11-13T14:17:12.524Z,27.65
2022-11-13T14:20:01.231Z,25.45
2022-11-13T14:22:55.353Z,29.51
2022-11-13T14:25:43.338Z,25.59
2022-11-13T14:28:32.388Z,27.02
2022-11-13T14:31:18.798Z,25.29
2022-11-13T14:34:11.540Z,27.42
2022-11-13T14:37:05.913Z,26.51
2022-11-13T14:39:52.644Z,25.17
2022-11-13T14:42:44.001Z,26.28
2022-11-13T14:45:31.976Z,25.92
2022-11-13T14:48:29.041Z,27.42
2022-11-13T14:51:25.298Z,30.34
2022-11-13T14:54:53.225Z,27.62
2022-11-13T14:57:48.265Z,25.57
2022-11-13T15:00:36.390Z,25.85
2022-11-13T15:03:21.763Z,26.14
2022-11-13T15:06:20.343Z,27.19
2022-11-13T15:09:15.437Z,27.05
2022-11-13T15:12:00.905Z,26.11
2022-11-13T15:14:46.138Z,25.21
2022-11-13T15:17:32.344Z,26.78
2022-11-13T15:20:26.477Z,27.39
2022-11-13T15:23:15.579Z,25.50
2022-11-13T15:26:00.794Z,24.84
2022-11-13T15:28:46.021Z,26.74
2022-11-13T15:31:37.852Z,25.47
2022-11-13T15:34:23.446Z,26.44
2022-11-13T15:37:13.834Z,26.37
2022-11-13T15:39:58.973Z,25.54
2022-11-13T15:42:44.855Z,26.64
2022-11-13T15:45:30.521Z,26.32
2022-11-13T15:48:15.659Z,24.65
2022-11-13T15:51:01.182Z,26.85
2022-11-13T15:53:51.758Z,26.85
2022-11-13T15:56:37.115Z,25.80
2022-11-13T15:59:22.249Z,25.52
2022-11-13T16:02:09.384Z,26.51
2022-11-13T16:04:57.103Z,26.90
2022-11-13T16:07:43.533Z,24.42
2022-11-13T16:10:28.861Z,23.90
2022-11-13T16:13:14.161Z,24.97
2022-11-13T16:16:00.908Z,27.80
2022-11-13T16:18:46.488Z,26.89
2022-11-13T16:21:32.605Z,25.49
2022-11-13T16:24:22.698Z,28.15
2022-11-13T16:27:14.325Z,26.90
2022-11-13T16:30:03.972Z,26.18
2022-11-13T16:32:52.184Z,27.00
2022-11-13T16:35:38.043Z,24.40
2022-11-13T16:38:23.532Z,26.44
2022-11-13T16:41:10.907Z,25.45
2022-11-13T16:43:56.189Z,24.09
2022-11-13T16:46:45.339Z,25.38
2022-11-13T16:49:30.364Z,26.64
2022-11-13T16:52:15.948Z,29.36
2022-11-13T16:55:06.104Z,28.35
2022-11-13T16:57:51.955Z,26.27
2022-11-13T17:00:37.429Z,27.27
2022-11-13T17:03:22.917Z,27.31
2022-11-13T17:06:22.272Z,25.42
2022-11-13T17:09:07.991Z,24.91
2022-11-13T17:11:53.232Z,23.34
2022-11-13T17:14:38.873Z,27.42
2022-11-13T17:20:10.532Z,25.55
2022-11-13T17:22:56.224Z,25.58
2022-11-13T17:25:42.121Z,23.43
2022-11-13T17:28:27.377Z,25.76
2022-11-13T17:31:12.889Z,24.52
2022-11-13T17:33:58.273Z,25.84
2022-11-13T17:36:43.562Z,24.33
2022-11-13T17:39:29.009Z,23.94
2022-11-13T17:42:14.336Z,23.58
2022-11-13T17:44:59.560Z,23.01
2022-11-13T17:47:44.977Z,24.78
2022-11-13T17:50:30.317Z,24.13
2022-11-13T17:53:15.336Z,23.54
2022-11-13T17:56:02.944Z,23.47
2022-11-13T17:58:47.983Z,24.01
2022-11-13T18:01:34.120Z,23.09
2022-11-13T18:04:20.867Z,24.30
2022-11-13T18:07:07.171Z,23.24
2022-11-13T18:09:52.830Z,22.74
2022-11-13T18:12:38.219Z,22.91
2022-11-13T18:15:24.146Z,22.87
2022-11-13T18:18:09.781Z,26.20
2022-11-13T18:20:55.025Z,24.13
2022-11-13T18:23:40.469Z,24.99
2022-11-13T18:26:27.270Z,23.90
2022-11-13T18:29:12.512Z,26.12
2022-11-13T18:31:57.859Z,23.68
2022-11-13T18:34:43.114Z,23.46
2022-11-13T18:37:28.855Z,23.74
2022-11-13T18:40:14.355Z,23.81
2022-11-13T18:42:59.775Z,27.94
2022-11-13T18:45:55.912Z,24.40
2022-11-13T18:48:43.000Z,24.45
2022-11-13T18:51:29.878Z,24.06
2022-11-13T18:54:15.444Z,23.32
2022-11-13T18:57:00.897Z,26.43
2022-11-13T18:59:46.187Z,27.40
2022-11-13T19:02:31.637Z,27.01
2022-11-13T19:05:17.063Z,24.00
2022-11-13T19:08:02.245Z,24.38
2022-11-13T19:10:47.769Z,24.63
2022-11-13T19:13:34.829Z,23.36
2022-11-13T19:16:31.425Z,23.05
2022-11-13T19:19:23.306Z,22.97
2022-11-13T19:22:08.837Z,23.74
2022-11-13T19:24:53.883Z,24.33
2022-11-13T19:27:39.410Z,24.01
2022-11-13T19:30:24.809Z,23.04
2022-11-13T19:33:10.253Z,24.82
2022-11-13T19:35:55.856Z,23.43
2022-11-13T19:38:41.905Z,23.84
2022-11-13T19:41:29.119Z,25.00
2022-11-13T19:44:14.776Z,23.95
2022-11-13T19:47:00.087Z,25.75
2022-11-13T19:49:45.343Z,29.39
2022-11-13T19:52:30.628Z,24.85
2022-11-13T19:55:15.982Z,25.07
2022-11-13T19:58:01.597Z,24.71
2022-11-13T20:00:46.557Z,25.70
2022-11-13T20:03:31.824Z,25.19
2022-11-13T20:06:17.742Z,26.26
2022-11-13T20:09:03.430Z,24.16
2022-11-13T20:11:48.894Z,24.52
2022-11-13T20:14:38.090Z,25.32
2022-11-13T20:17:23.990Z,23.55
2022-11-13T20:20:09.541Z,25.23
2022-11-13T20:22:54.772Z,24.58
2022-11-13T20:25:39.759Z,27.19
2022-11-13T20:28:25.472Z,24.35
2022-11-13T20:31:14.289Z,24.32
2022-11-13T20:33:59.262Z,24.89
2022-11-13T20:36:44.817Z,24.59
2022-11-13T20:39:30.048Z,26.15
2022-11-13T20:42:15.212Z,25.31
2022-11-13T20:45:01.520Z,23.69
2022-11-13T20:47:46.884Z,25.20
2022-11-13T20:50:35.896Z,24.42
2022-11-13T20:53:22.183Z,24.65
2022-11-13T20:56:08.892Z,25.63
2022-11-13T20:58:54.587Z,26.64
2022-11-13T21:01:39.894Z,27.36
2022-11-13T21:04:24.993Z,25.51
2022-11-13T21:07:10.506Z,26.03
2022-11-13T21:09:55.709Z,24.59
2022-11-13T21:12:41.129Z,24.48
2022-11-13T21:15:26.420Z,23.06
2022-11-13T21:18:11.915Z,24.75
2022-11-13T21:21:08.273Z,25.42
2022-11-13T21:23:57.893Z,23.58
2022-11-13T21:26:43.373Z,23.84
2022-11-13T21:29:28.731Z,26.29
2022-11-13T21:32:14.160Z,26.40
2022-11-13T21:34:59.488Z,25.95
2022-11-13T21:37:44.763Z,25.06
2022-11-13T21:40:30.184Z,23.72
2022-11-13T21:43:15.456Z,24.44
2022-11-13T21:46:07.445Z,23.98
2022-11-13T21:48:58.614Z,24.82
2022-11-13T21:51:44.068Z,23.98
2022-11-13T21:54:29.346Z,23.29
2022-11-13T21:57:14.723Z,24.12
2022-11-13T22:00:00.239Z,23.11
2022-11-13T22:02:45.597Z,24.71
2022-11-13T22:05:31.081Z,23.03
2022-11-13T22:08:16.496Z,22.90
2022-11-13T22:11:01.991Z,25.74
2022-11-13T22:13:48.129Z,24.99
2022-11-13T22:16:34.858Z,25.92
2022-11-13T22:19:25.579Z,23.77
2022-11-13T22:22:13.033Z,23.63
2022-11-13T22:24:58.336Z,22.67
2022-11-13T22:27:43.581Z,23.97
2022-11-13T22:30:28.975Z,24.01
2022-11-13T22:33:14.344Z,24.24
2022-11-13T22:36:08.436Z,23.74
2022-11-13T22:38:55.249Z,25.65
2022-11-13T22:41:40.681Z,24.46
2022-11-13T22:44:31.705Z,27.42
2022-11-13T22:47:35.678Z,25.12
2022-11-13T22:50:23.586Z,23.45
2022-11-13T22:53:09.011Z,23.69
2022-11-13T22:55:54.373Z,27.50
2022-11-13T22:58:40.260Z,24.33
2022-11-13T23:01:28.242Z,24.23
2022-11-13T23:04:13.896Z,23.60
2022-11-13T23:06:59.357Z,24.85
2022-11-13T23:09:44.629Z,24.44
2022-11-13T23:12:30.421Z,24.23
2022-11-13T23:15:15.752Z,24.41
2022-11-13T23:18:03.524Z,26.98
2022-11-13T23:20:50.734Z,26.85
2022-11-13T23:23:37.378Z,26.35
2022-11-13T23:26:24.243Z,24.89
2022-11-13T23:29:11.121Z,26.59
2022-11-13T23:31:56.614Z,25.54
2022-11-13T23:34:58.633Z,24.88
2022-11-13T23:37:44.954Z,25.27
2022-11-13T23:40:30.245Z,25.56
2022-11-13T23:43:15.444Z,27.99
2022-11-13T23:46:00.831Z,28.21
2022-11-13T23:48:46.022Z,27.68
2022-11-13T23:51:31.518Z,25.83
2022-11-13T23:54:16.817Z,25.36
2022-11-13T23:57:02.013Z,25.43
2022-11-13T23:59:47.281Z,24.59
